CheckWX is a tool to help pilots better visualize weather data.  It is not intended as a substitute for an official pre-flight weather briefing.

01:54:46 UTC

WIEE TAF
Minangkabau Airport
Minangkabau, Indonesia
TAF WIEE 182300Z 1900/1924 24006KT 9999 FEW020 BECMG 1908/1910 18006KT BECMG 1912/1914 02003KT

Mar-19@
00:00 UTC

Mar-19 @ 00:00 UTC

Mar-19@
08:00 UTC

Mar-19 @ 08:00 UTC

TAF WIEE 182300Z 1900/1924 24006KT 9999 FEW020
Wind
  • 240° at 6 KTS
Cloud Levels
  • Few at 2,000' AGL

Mar-19@
08:00 UTC

Mar-19 @ 08:00 UTC

Mar-19@
12:00 UTC

Mar-19 @ 12:00 UTC

BECMG 1908/1910 18006KT

Becoming

Becoming Conditions expected by Tue, Mar 19, 2019 @ 10:00 UTC

Wind
  • 180° at 6 KTS
Cloud Levels
  • Few at 2,000' AGL

Mar-19@
12:00 UTC

Mar-19 @ 12:00 UTC

Mar-20@
00:00 UTC

Mar-20 @ 00:00 UTC

BECMG 1912/1914 02003KT

Becoming

Becoming Conditions expected by Tue, Mar 19, 2019 @ 14:00 UTC

Wind
  • 020° at 3 KTS
Cloud Levels
  • Few at 2,000' AGL